createdAt,value
2019-01-16T00:01:34.370Z,2.57
2019-01-16T00:10:59.215Z,2.20
2019-01-16T00:20:11.744Z,2.17
2019-01-16T00:24:33.676Z,2.30
2019-01-16T00:28:52.208Z,2.00
2019-01-16T00:33:18.225Z,2.17
2019-01-16T00:37:41.428Z,2.20
2019-01-16T00:42:07.687Z,2.37
2019-01-16T00:46:36.711Z,2.40
2019-01-16T00:50:58.610Z,2.30
2019-01-16T00:55:47.404Z,2.17
2019-01-16T01:00:10.769Z,2.13
2019-01-16T01:04:48.943Z,2.03
2019-01-16T01:09:10.378Z,2.00
2019-01-16T01:18:32.221Z,1.90
2019-01-16T01:22:55.498Z,1.83
2019-01-16T01:27:25.412Z,2.30
2019-01-16T01:36:43.582Z,2.20
2019-01-16T01:41:29.617Z,1.87
2019-01-16T01:46:14.166Z,2.03
2019-01-16T01:50:32.368Z,2.03
2019-01-16T02:00:02.465Z,1.77
2019-01-16T02:04:34.737Z,1.90
2019-01-16T02:08:56.715Z,1.77
2019-01-16T02:13:59.289Z,2.07
2019-01-16T02:18:28.778Z,1.93
2019-01-16T02:23:08.607Z,2.00
2019-01-16T02:36:16.716Z,1.80
2019-01-16T02:40:57.929Z,2.47
2019-01-16T02:54:37.946Z,2.13
2019-01-16T02:58:52.581Z,1.90
2019-01-16T03:26:15.075Z,1.60
2019-01-16T03:30:45.821Z,2.00
2019-01-16T03:35:22.883Z,1.70
2019-01-16T03:39:58.016Z,1.80
2019-01-16T03:44:21.514Z,2.27
2019-01-16T03:48:43.362Z,2.43
2019-01-16T04:02:23.693Z,2.13
2019-01-16T04:06:37.151Z,1.70
2019-01-16T04:11:18.163Z,2.00
2019-01-16T04:15:59.298Z,1.70
2019-01-16T04:24:40.821Z,1.87
2019-01-16T04:29:21.938Z,1.73
2019-01-16T04:33:54.010Z,2.00
2019-01-16T04:38:35.189Z,1.73
2019-01-16T04:42:58.573Z,2.10
2019-01-16T04:51:58.266Z,1.77
2019-01-16T04:56:33.744Z,1.70
2019-01-16T05:01:12.377Z,1.80
2019-01-16T05:09:42.571Z,1.60
2019-01-16T05:14:36.392Z,2.00
2019-01-16T05:19:17.153Z,1.30
2019-01-16T05:23:42.143Z,1.87
2019-01-16T05:28:11.429Z,1.73
2019-01-16T05:49:52.985Z,1.70
2019-01-16T05:54:14.936Z,1.70
2019-01-16T05:59:00.406Z,1.70
2019-01-16T06:03:13.724Z,1.50
2019-01-16T06:07:39.575Z,1.67
2019-01-16T06:12:01.310Z,1.70
2019-01-16T06:16:33.703Z,1.57
2019-01-16T06:21:00.025Z,1.60
2019-01-16T06:25:26.895Z,1.60
2019-01-16T06:29:56.405Z,1.60
2019-01-16T06:34:18.050Z,1.70
2019-01-16T06:38:39.737Z,2.00
2019-01-16T06:43:02.964Z,1.50
2019-01-16T06:47:16.194Z,1.57
2019-01-16T06:51:42.821Z,1.90
2019-01-16T06:56:08.616Z,2.10
2019-01-16T07:09:27.521Z,1.73
2019-01-16T07:13:53.478Z,2.10
2019-01-16T07:18:19.790Z,1.60
2019-01-16T07:27:35.328Z,2.10
2019-01-16T07:32:46.833Z,1.73
2019-01-16T07:37:19.507Z,1.60
2019-01-16T07:41:49.330Z,1.60
2019-01-16T07:51:39.468Z,1.70
2019-01-16T08:01:11.755Z,1.83
2019-01-16T08:05:47.202Z,1.90
2019-01-16T08:10:42.002Z,2.00
2019-01-16T08:19:42.452Z,1.87
2019-01-16T08:24:06.872Z,1.57
2019-01-16T08:55:36.898Z,1.77
2019-01-16T09:00:06.033Z,1.77
2019-01-16T09:18:23.422Z,1.63
2019-01-16T09:23:11.825Z,1.50
2019-01-16T09:27:47.013Z,1.70
2019-01-16T09:45:48.375Z,2.07
2019-01-16T09:50:09.264Z,1.90
2019-01-16T09:54:47.813Z,1.63
2019-01-16T10:08:11.384Z,1.90
2019-01-16T10:12:37.504Z,1.80
2019-01-16T10:17:00.711Z,2.03
2019-01-16T10:21:42.986Z,1.83
2019-01-16T10:26:20.944Z,1.77
2019-01-16T10:31:02.400Z,2.10
2019-01-16T10:35:51.436Z,1.93
2019-01-16T10:40:16.474Z,1.90
2019-01-16T10:49:07.647Z,2.00
2019-01-16T10:53:36.875Z,2.10
2019-01-16T11:02:21.762Z,2.07
2019-01-16T11:06:43.742Z,2.10
2019-01-16T11:11:00.747Z,1.97
2019-01-16T11:15:52.318Z,1.83
2019-01-16T11:20:14.243Z,2.00
2019-01-16T11:24:56.568Z,1.97
2019-01-16T11:29:18.518Z,2.20
2019-01-16T11:47:38.352Z,2.03
2019-01-16T11:52:07.713Z,2.20
2019-01-16T11:56:34.045Z,1.90
2019-01-16T12:05:57.650Z,2.00
2019-01-16T12:10:21.942Z,2.10
2019-01-16T12:15:13.051Z,2.23
2019-01-16T12:19:44.068Z,2.17
2019-01-16T12:24:22.477Z,1.90
2019-01-16T12:28:44.206Z,1.90
2019-01-16T12:33:35.657Z,1.80
2019-01-16T12:38:07.975Z,1.97
2019-01-16T12:42:46.386Z,1.80
2019-01-16T12:47:12.416Z,1.90
2019-01-16T12:51:33.698Z,1.90
2019-01-16T12:56:28.532Z,1.90
2019-01-16T13:01:09.363Z,1.70
2019-01-16T13:05:32.588Z,1.90
2019-01-16T13:09:48.301Z,2.00
2019-01-16T13:14:30.177Z,1.97
2019-01-16T13:19:11.481Z,1.80
2019-01-16T13:24:02.619Z,2.10
2019-01-16T13:28:31.897Z,2.13
2019-01-16T13:32:54.623Z,1.93
2019-01-16T13:37:39.143Z,2.00
2019-01-16T13:41:54.767Z,2.23
2019-01-16T13:46:26.969Z,2.30
2019-01-16T13:50:48.861Z,1.70
2019-01-16T13:55:11.277Z,1.90
2019-01-16T13:59:33.548Z,2.30
2019-01-16T14:04:03.841Z,2.63
2019-01-16T14:08:25.496Z,1.83
2019-01-16T14:12:57.825Z,2.50
2019-01-16T14:17:09.419Z,1.80
2019-01-16T14:21:23.932Z,1.80
2019-01-16T14:25:45.769Z,2.23
2019-01-16T14:30:12.234Z,2.03
2019-01-16T14:34:37.766Z,1.90
2019-01-16T14:39:04.040Z,2.17
2019-01-16T14:43:39.265Z,2.00
2019-01-16T14:48:02.841Z,2.00
2019-01-16T14:52:24.664Z,1.77
2019-01-16T14:56:42.768Z,2.10
2019-01-16T15:01:04.647Z,1.90
2019-01-16T15:05:20.505Z,1.67
2019-01-16T15:09:42.520Z,1.90
2019-01-16T15:14:05.784Z,1.83
2019-01-16T15:18:29.007Z,1.80
2019-01-16T15:22:44.544Z,1.97
2019-01-16T15:27:06.456Z,2.13
2019-01-16T15:31:28.621Z,2.80
2019-01-16T15:35:50.998Z,2.03
2019-01-16T15:40:23.210Z,1.70
2019-01-16T15:44:43.408Z,1.87
2019-01-16T15:49:05.350Z,1.83
2019-01-16T15:53:32.375Z,1.87
2019-01-16T15:58:05.201Z,1.77
2019-01-16T16:02:28.195Z,2.00
2019-01-16T16:06:50.437Z,2.23
2019-01-16T16:11:29.350Z,2.20
2019-01-16T16:15:55.430Z,2.00
2019-01-16T16:20:23.456Z,1.97
2019-01-16T16:24:50.167Z,1.80
2019-01-16T16:29:17.144Z,3.20
2019-01-16T16:33:45.404Z,4.93
2019-01-16T16:38:25.063Z,4.40
2019-01-16T16:42:46.802Z,4.40
2019-01-16T16:47:13.881Z,4.80
2019-01-16T16:51:43.279Z,5.13
2019-01-16T16:56:10.878Z,4.57
2019-01-16T17:00:31.630Z,6.73
2019-01-16T17:04:53.442Z,7.37
2019-01-16T17:09:19.600Z,7.27
2019-01-16T17:13:48.125Z,7.00
2019-01-16T17:18:00.330Z,6.50
2019-01-16T17:22:32.258Z,6.23
2019-01-16T17:26:55.990Z,6.37
2019-01-16T17:31:18.142Z,6.80
2019-01-16T17:35:39.619Z,5.40
2019-01-16T17:40:18.310Z,4.70
2019-01-16T17:44:44.629Z,6.17
2019-01-16T17:49:06.769Z,6.10
2019-01-16T17:53:28.654Z,5.30
2019-01-16T17:57:50.448Z,6.27
2019-01-16T18:02:13.583Z,7.00
2019-01-16T18:06:31.165Z,7.80
2019-01-16T18:10:48.075Z,7.77
2019-01-16T18:15:04.355Z,7.53
2019-01-16T18:19:36.646Z,7.53
2019-01-16T18:24:06.727Z,6.73
2019-01-16T18:28:38.718Z,6.87
2019-01-16T18:33:00.577Z,7.20
2019-01-16T18:37:35.667Z,6.97
2019-01-16T18:42:08.001Z,7.33
2019-01-16T18:46:34.576Z,7.53
2019-01-16T18:50:57.775Z,7.10
2019-01-16T18:55:16.861Z,6.87
2019-01-16T18:59:52.026Z,7.07
2019-01-16T19:04:07.433Z,6.03
2019-01-16T19:08:29.373Z,6.57
2019-01-16T19:12:45.839Z,6.13
2019-01-16T19:17:03.648Z,5.87
2019-01-16T19:21:39.034Z,6.57
2019-01-16T19:26:01.272Z,5.93
2019-01-16T19:30:29.798Z,6.07
2019-01-16T19:34:39.036Z,6.67
2019-01-16T19:39:11.246Z,6.17
2019-01-16T19:43:32.869Z,5.87
2019-01-16T19:47:55.366Z,6.33
2019-01-16T19:52:08.996Z,7.40
2019-01-16T19:56:23.847Z,7.70
2019-01-16T20:01:02.014Z,8.03
2019-01-16T20:05:21.447Z,7.07
2019-01-16T20:09:48.463Z,4.77
2019-01-16T20:14:14.357Z,4.93
2019-01-16T20:18:30.014Z,5.27
2019-01-16T20:22:51.849Z,5.30
2019-01-16T20:27:17.983Z,5.03
2019-01-16T20:31:39.795Z,5.90
2019-01-16T20:36:14.827Z,5.93
2019-01-16T20:40:26.582Z,6.37
2019-01-16T20:44:43.348Z,6.20
2019-01-16T20:48:58.591Z,5.60
2019-01-16T20:53:17.884Z,6.50
2019-01-16T20:57:50.702Z,6.90
2019-01-16T21:02:13.981Z,7.67
2019-01-16T21:06:44.714Z,6.73
2019-01-16T21:11:31.038Z,6.93
2019-01-16T21:15:44.833Z,6.63
2019-01-16T21:20:07.956Z,6.03
2019-01-16T21:24:31.138Z,6.50
2019-01-16T21:28:56.126Z,5.87
2019-01-16T21:33:15.816Z,5.83
2019-01-16T21:37:27.409Z,6.37
2019-01-16T21:41:51.441Z,6.40
2019-01-16T21:46:13.347Z,7.30
2019-01-16T21:50:51.768Z,6.77
2019-01-16T21:55:20.717Z,6.73
2019-01-16T21:59:41.839Z,6.70
2019-01-16T22:04:03.669Z,6.70
2019-01-16T22:08:26.763Z,6.93
2019-01-16T22:12:48.254Z,6.97
2019-01-16T22:17:10.040Z,7.20
2019-01-16T22:21:34.201Z,7.43
2019-01-16T22:25:50.124Z,7.23
2019-01-16T22:30:19.254Z,6.50
2019-01-16T22:34:35.894Z,7.20
2019-01-16T22:38:59.024Z,7.13
2019-01-16T22:43:22.205Z,6.77
2019-01-16T22:48:00.585Z,7.10
2019-01-16T22:52:23.023Z,7.40
2019-01-16T22:56:49.013Z,7.70
2019-01-16T23:01:02.250Z,7.73
2019-01-16T23:05:27.169Z,6.50
2019-01-16T23:09:57.120Z,7.10
2019-01-16T23:14:26.555Z,6.77
2019-01-16T23:18:38.743Z,6.90
2019-01-16T23:23:04.674Z,7.33
2019-01-16T23:27:26.530Z,6.73
2019-01-16T23:31:37.310Z,6.67
2019-01-16T23:36:01.688Z,7.73
2019-01-16T23:40:29.004Z,7.37
2019-01-16T23:44:57.439Z,6.97
2019-01-16T23:49:19.167Z,7.73
2019-01-16T23:53:41.070Z,6.63
2019-01-16T23:58:13.132Z,7.20
